Swanwick, Illinois
Current Conditions -  °F | °C
As of 9:35 AM on Saturday 25 Oct 2014 (Local Time) from KSAR Reporting Station
Clear Clear  
Wind Chill: 64°   Ceiling: Unl
Heat Index: 64°   Visibility: 10mi
Dew Point: 60°   Wind: 5mph
Humidity: 85%   Direction: 290°WNW
Pressure: 30.06"   Gusts: NA
Location:  38.1705°N, 89.5556°W
Report Text: KSAR 251435Z AUTO 29004KT 10SM CLR 18/15 A3006 RMK AO2 T01790153
Loading
Personal Weather Stations






























Interactive Weather Map
Tropical Storm Tracking
New forecast layout! Learn more

10-Day Weather Forecast

Advertisements
Track Severe Weather on mobile